Date,TemperatureHighF,TemperatureAvgF,TemperatureLowF,DewpointHighF,DewpointAvgF,DewpointLowF,HumidityHigh,HumidityAvg,HumidityLow,PressureMaxIn,PressureMinIn,WindSpeedMaxMPH,WindSpeedAvgMPH,GustSpeedMaxMPH,PrecipitationSumIn
2013-3-1,63.4,58.7,53.6,50.0,45.9,39.0,72,63,53,30.04,29.93,13,2,15,0.00
2013-3-2,61.5,55.0,47.8,46.0,41.9,39.0,85,62,51,30.09,29.99,10,3,19,0.01
2013-3-3,56.1,49.5,43.6,41.0,37.3,31.0,74,63,54,30.17,30.01,10,3,19,0.00
2013-3-4,61.6,52.4,42.2,43.0,38.8,32.0,85,61,45,30.24,30.14,9,2,13,0.00
2013-3-5,71.4,59.4,43.5,63.0,53.1,41.0,92,80,63,30.18,30.05,8,2,11,0.00
2013-3-6,65.9,60.0,54.0,64.0,48.7,41.0,95,68,46,30.16,29.98,14,4,25,0.02
2013-3-7,60.9,53.2,44.4,47.0,40.5,34.0,90,64,42,30.24,30.14,10,2,15,0.00
2013-3-8,68.5,56.5,45.0,51.0,46.5,42.0,95,73,42,30.24,30.15,8,2,14,0.00
2013-3-9,73.6,61.3,49.0,56.0,49.8,43.0,93,69,34,30.23,30.14,11,3,16,0.00
2013-3-10,78.2,66.1,58.5,60.0,56.2,52.0,89,72,45,30.16,30.05,17,4,20,0.00
2013-3-11,75.3,67.7,59.4,64.0,60.2,57.0,90,77,64,30.10,29.89,13,4,21,0.00
2013-3-12,68.5,64.0,58.7,67.0,60.0,53.0,98,87,75,30.06,29.86,14,3,18,0.21
2013-3-13,68.4,62.2,58.6,54.0,48.1,43.0,81,61,43,30.20,30.05,11,4,19,0.00
2013-3-14,62.5,58.0,52.1,54.0,40.8,31.0,80,54,34,30.29,30.19,10,4,20,0.00
2013-3-15,67.4,56.8,44.3,49.0,43.1,35.0,91,64,33,30.30,30.19,7,2,11,0.00
2013-3-16,72.3,60.0,48.3,61.0,52.1,43.0,96,78,40,30.20,30.10,7,1,10,0.00
2013-3-17,73.9,64.0,53.4,62.0,58.0,52.0,97,82,57,30.14,30.00,12,2,15,0.01
2013-3-18,72.1,67.4,61.6,68.0,63.4,59.0,94,87,77,30.04,29.88,10,3,18,0.00
2013-3-19,79.9,68.7,62.5,68.0,64.6,62.0,98,87,65,30.02,29.90,9,2,12,0.01
2013-3-20,71.0,65.8,58.9,66.0,63.1,58.0,96,91,79,29.98,29.82,7,2,16,0.19
2013-3-21,67.1,59.4,48.4,59.0,45.7,37.0,97,64,34,30.02,29.89,8,2,15,0.00
2013-3-22,74.1,61.7,47.2,67.0,53.4,43.0,97,77,41,30.00,29.89,9,2,19,0.12
2013-3-23,76.2,70.3,66.1,73.0,69.0,65.0,99,95,86,29.97,29.81,9,3,14,0.00
2013-3-24,76.7,71.7,68.2,73.0,70.2,67.0,99,95,88,29.82,29.66,9,3,15,0.00
2013-3-25,68.3,62.6,57.7,67.0,51.6,41.0,96,69,46,30.07,29.77,14,4,19,0.00
2013-3-26,59.5,55.9,50.9,47.0,39.9,36.0,66,56,46,30.27,30.06,14,4,23,0.00
2013-3-27,58.6,51.3,43.6,42.0,37.0,30.0,84,59,45,30.35,30.23,9,2,13,0.00
2013-3-28,67.2,56.0,44.6,49.0,40.9,32.0,92,61,29,30.31,30.23,7,1,15,0.00
2013-3-29,74.7,60.8,48.7,52.0,47.2,34.0,90,65,23,30.33,30.21,8,2,14,0.00
2013-3-30,73.1,62.6,52.1,61.0,54.7,48.0,91,77,53,30.26,30.15,11,2,16,0.00
2013-3-31,75.6,66.8,57.5,64.0,58.8,54.0,94,77,57,30.16,30.01,10,2,14,0.00